createdAt,value
2022-08-07T00:00:39.964Z,22.01
2022-08-07T00:03:15.728Z,21.97
2022-08-07T00:05:52.833Z,21.95
2022-08-07T00:08:30.013Z,21.91
2022-08-07T00:11:07.542Z,21.88
2022-08-07T00:13:45.174Z,21.84
2022-08-07T00:16:17.467Z,21.80
2022-08-07T00:18:57.031Z,21.76
2022-08-07T00:21:57.100Z,21.72
2022-08-07T00:24:17.168Z,21.68
2022-08-07T00:27:06.511Z,21.64
2022-08-07T00:29:42.927Z,21.63
2022-08-07T00:33:09.392Z,21.55
2022-08-07T00:35:49.723Z,21.50
2022-08-07T00:39:20.589Z,21.44
2022-08-07T00:42:05.272Z,21.40
2022-08-07T00:44:57.426Z,21.36
2022-08-07T00:48:09.493Z,21.33
2022-08-07T00:50:50.403Z,21.29
2022-08-07T00:53:39.075Z,21.24
2022-08-07T00:59:35.533Z,21.18
2022-08-07T01:02:43.184Z,21.14
2022-08-07T01:08:29.605Z,21.11
2022-08-07T01:11:00.752Z,21.07
2022-08-07T01:14:02.487Z,21.07
2022-08-07T01:16:31.380Z,21.07
2022-08-07T01:22:10.956Z,21.04
2022-08-07T01:24:55.445Z,21.00
2022-08-07T01:27:32.191Z,20.99
2022-08-07T03:19:54.916Z,20.21
2022-08-07T03:22:34.996Z,20.18
2022-08-07T03:25:11.980Z,20.16
2022-08-07T03:28:09.130Z,20.13
2022-08-07T03:30:43.528Z,20.10
2022-08-07T03:34:02.090Z,20.06
2022-08-07T03:36:04.853Z,20.04
2022-08-07T03:38:38.668Z,20.01
2022-08-07T03:41:12.536Z,19.99
2022-08-07T03:43:56.971Z,19.97
2022-08-07T03:46:34.306Z,19.96
2022-08-07T03:49:03.528Z,19.95
2022-08-07T03:51:47.254Z,19.92
2022-08-07T03:54:35.786Z,19.90
2022-08-07T03:58:34.959Z,19.88
2022-08-07T04:00:29.225Z,19.88
2022-08-07T04:03:04.299Z,19.87
2022-08-07T04:06:00.772Z,19.86
2022-08-07T04:08:31.420Z,19.87
2022-08-07T04:12:23.848Z,19.90
2022-08-07T04:14:10.055Z,19.87
2022-08-07T04:17:20.034Z,19.83
2022-08-07T04:19:54.895Z,19.83
2022-08-07T04:22:34.231Z,19.85
2022-08-07T04:25:08.836Z,19.86
2022-08-07T04:27:45.931Z,19.86
2022-08-07T04:30:39.442Z,19.90
2022-08-07T04:33:17.892Z,19.92
2022-08-07T04:35:51.214Z,19.95
2022-08-07T04:38:26.272Z,20.01
2022-08-07T04:44:11.863Z,20.37
2022-08-07T04:47:04.463Z,20.54
2022-08-07T04:49:47.608Z,20.69
2022-08-07T04:52:31.170Z,20.76
2022-08-07T04:55:00.627Z,21.26
2022-08-07T04:58:25.977Z,22.02
2022-08-07T05:00:40.183Z,22.80
2022-08-07T05:04:06.440Z,23.28
2022-08-07T05:06:53.140Z,23.58
2022-08-07T05:09:46.772Z,23.86
2022-08-07T05:12:27.078Z,24.19
2022-08-07T05:15:23.289Z,24.17
2022-08-07T05:18:32.120Z,24.30
2022-08-07T05:22:00.805Z,24.56
2022-08-07T05:24:43.129Z,24.71
2022-08-07T05:28:16.178Z,24.68
2022-08-07T05:30:52.957Z,24.64
2022-08-07T05:34:15.937Z,24.69
2022-08-07T05:37:05.723Z,24.73
2022-08-07T05:40:16.671Z,24.76
2022-08-07T05:43:11.967Z,24.60
2022-08-07T05:45:48.335Z,24.44
2022-08-07T05:48:29.908Z,24.40
2022-08-07T05:51:18.018Z,24.34
2022-08-07T05:54:12.183Z,24.46
2022-08-07T05:57:20.887Z,24.58
2022-08-07T06:00:02.628Z,24.65
2022-08-07T06:02:51.499Z,24.69
2022-08-07T06:08:32.275Z,24.58
2022-08-07T06:14:28.715Z,24.65
2022-08-07T06:17:30.616Z,24.64
2022-08-07T06:20:25.719Z,24.32
2022-08-07T06:25:57.188Z,23.85
2022-08-07T06:28:28.721Z,23.63
2022-08-07T06:31:11.565Z,23.52
2022-08-07T06:33:44.489Z,23.45
2022-08-07T06:36:35.301Z,23.44
2022-08-07T06:40:17.252Z,23.54
2022-08-07T06:42:03.254Z,23.56
2022-08-07T06:44:55.407Z,23.57
2022-08-07T06:47:38.674Z,23.58
2022-08-07T06:50:18.979Z,23.58
2022-08-07T06:52:53.759Z,23.66
2022-08-07T06:55:53.899Z,23.79
2022-08-07T06:58:27.591Z,23.94
2022-08-07T07:01:16.262Z,24.02
2022-08-07T07:03:50.022Z,24.03
2022-08-07T07:06:33.842Z,24.02
2022-08-07T07:09:42.010Z,24.05
2022-08-07T07:15:54.760Z,24.16
2022-08-07T07:16:09.487Z,24.04
2022-08-07T07:18:49.843Z,24.27
2022-08-07T07:22:11.716Z,24.28
2022-08-07T07:24:32.042Z,24.31
2022-08-07T07:27:05.836Z,24.41
2022-08-07T07:30:08.852Z,24.48
2022-08-07T07:32:50.773Z,24.57
2022-08-07T07:35:18.885Z,24.66
2022-08-07T07:37:59.083Z,24.77
2022-08-07T07:40:35.088Z,24.89
2022-08-07T07:43:15.006Z,25.06
2022-08-07T07:46:37.922Z,25.27
2022-08-07T07:48:39.151Z,25.52
2022-08-07T07:51:08.620Z,25.79
2022-08-07T07:53:51.301Z,26.03
2022-08-07T07:56:35.470Z,26.24
2022-08-07T07:59:52.062Z,26.43
2022-08-07T08:02:22.570Z,26.67
2022-08-07T08:05:15.186Z,26.86
2022-08-07T08:08:34.836Z,27.03
2022-08-07T08:11:18.138Z,27.11
2022-08-07T08:13:57.810Z,27.21
2022-08-07T08:17:55.385Z,27.35
2022-08-07T08:20:26.219Z,27.59
2022-08-07T08:23:38.801Z,27.80
2022-08-07T08:26:27.312Z,27.92
2022-08-07T08:29:31.492Z,28.01
2022-08-07T08:32:18.191Z,28.09
2022-08-07T08:35:17.473Z,28.16
2022-08-07T08:38:04.604Z,28.28
2022-08-07T08:40:46.755Z,28.45
2022-08-07T08:43:50.559Z,28.56
2022-08-07T08:46:33.916Z,28.54
2022-08-07T08:49:02.068Z,28.45
2022-08-07T08:52:12.799Z,28.40
2022-08-07T08:54:53.658Z,28.28
2022-08-07T08:57:41.786Z,28.11
2022-08-07T09:00:09.308Z,27.97
2022-08-07T09:02:38.919Z,27.86
2022-08-07T09:05:05.537Z,27.82
2022-08-07T09:07:58.951Z,27.79
2022-08-07T09:10:57.940Z,27.79
2022-08-07T09:13:37.537Z,27.96
2022-08-07T09:16:33.869Z,28.21
2022-08-07T09:19:51.504Z,28.39
2022-08-07T09:22:40.014Z,28.61
2022-08-07T09:25:14.682Z,28.83
2022-08-07T09:28:00.606Z,29.07
2022-08-07T09:30:36.173Z,29.23
2022-08-07T09:33:53.118Z,29.19
2022-08-07T09:36:37.215Z,29.24
2022-08-07T09:39:06.354Z,29.28
2022-08-07T09:42:01.377Z,29.27
2022-08-07T09:45:03.440Z,29.31
2022-08-07T09:48:00.282Z,29.36
2022-08-07T09:50:40.379Z,29.34
2022-08-07T09:53:11.163Z,29.30
2022-08-07T09:56:10.557Z,29.21
2022-08-07T09:59:14.771Z,29.20
2022-08-07T10:02:18.240Z,29.24
2022-08-07T10:05:13.862Z,29.36
2022-08-07T10:08:00.184Z,29.55
2022-08-07T10:11:16.561Z,29.68
2022-08-07T10:14:00.810Z,29.75
2022-08-07T10:16:54.886Z,29.77
2022-08-07T10:19:48.423Z,29.75
2022-08-07T10:22:33.679Z,29.79
2022-08-07T10:25:04.175Z,29.82
2022-08-07T10:27:51.350Z,29.77
2022-08-07T10:30:22.544Z,29.83
2022-08-07T10:33:02.834Z,29.87
2022-08-07T10:35:55.205Z,29.88
2022-08-07T10:38:48.394Z,29.92
2022-08-07T10:41:51.894Z,29.95
2022-08-07T10:44:10.997Z,30.03
2022-08-07T10:46:41.934Z,30.08
2022-08-07T10:49:24.537Z,30.11
2022-08-07T10:52:13.214Z,30.15
2022-08-07T10:55:01.393Z,30.16
2022-08-07T10:57:37.059Z,30.14
2022-08-07T11:00:06.086Z,30.14
2022-08-07T11:02:41.660Z,30.18
2022-08-07T11:05:38.902Z,30.13
2022-08-07T11:08:39.779Z,30.11
2022-08-07T11:11:12.427Z,30.09
2022-08-07T11:14:43.608Z,30.02
2022-08-07T11:16:41.287Z,30.09
2022-08-07T11:19:21.714Z,30.19
2022-08-07T11:22:01.712Z,30.14
2022-08-07T11:24:34.216Z,30.09
2022-08-07T11:28:00.740Z,30.03
2022-08-07T11:30:18.979Z,29.93
2022-08-07T11:32:46.140Z,29.80
2022-08-07T11:35:30.390Z,29.73
2022-08-07T11:38:12.781Z,29.64
2022-08-07T11:40:55.314Z,29.68
2022-08-07T11:43:29.624Z,29.75
2022-08-07T11:46:18.997Z,29.72
2022-08-07T11:49:50.624Z,29.69
2022-08-07T11:52:13.259Z,29.79
2022-08-07T11:54:54.484Z,29.89
2022-08-07T11:58:00.185Z,29.93
2022-08-07T12:00:38.010Z,29.90
2022-08-07T12:03:44.258Z,29.94
2022-08-07T12:06:38.955Z,30.01
2022-08-07T12:09:16.779Z,30.06
2022-08-07T12:12:10.013Z,30.11
2022-08-07T12:14:53.859Z,30.11
2022-08-07T12:17:59.309Z,30.20
2022-08-07T12:20:30.363Z,30.26
2022-08-07T12:23:09.658Z,30.26
2022-08-07T12:26:21.917Z,30.31
2022-08-07T12:28:49.807Z,30.34
2022-08-07T12:32:01.782Z,30.35
2022-08-07T12:34:29.217Z,30.38
2022-08-07T12:36:56.503Z,30.47
2022-08-07T12:39:42.341Z,30.54
2022-08-07T12:42:13.296Z,30.63
2022-08-07T12:44:40.593Z,30.67
2022-08-07T12:47:30.687Z,30.70
2022-08-07T12:50:00.550Z,30.74
2022-08-07T12:52:34.712Z,30.80
2022-08-07T12:55:09.729Z,30.75
2022-08-07T12:58:01.185Z,30.76
2022-08-07T13:00:49.438Z,30.83
2022-08-07T13:03:54.662Z,30.86
2022-08-07T13:07:00.183Z,30.91
2022-08-07T13:10:21.574Z,30.96
2022-08-07T13:12:34.779Z,31.01
2022-08-07T13:15:29.528Z,31.03
2022-08-07T13:18:26.399Z,31.08
2022-08-07T13:21:23.595Z,31.09
2022-08-07T13:24:21.579Z,31.08
2022-08-07T13:27:13.989Z,31.10
2022-08-07T13:30:18.882Z,31.20
2022-08-07T13:34:31.829Z,31.22
2022-08-07T13:36:17.694Z,31.24
2022-08-07T13:38:47.850Z,31.22
2022-08-07T13:41:20.524Z,31.16
2022-08-07T13:43:52.674Z,31.09
2022-08-07T13:46:31.395Z,31.08
2022-08-07T13:49:04.726Z,31.12
2022-08-07T13:52:22.186Z,31.18
2022-08-07T13:54:30.374Z,31.13
2022-08-07T13:57:02.965Z,31.06
2022-08-07T13:59:32.263Z,31.02
2022-08-07T14:02:08.768Z,31.00
2022-08-07T14:04:54.345Z,30.98
2022-08-07T14:07:27.402Z,31.04
2022-08-07T14:10:12.218Z,31.08
2022-08-07T14:12:56.298Z,31.10
2022-08-07T14:15:37.039Z,31.16
2022-08-07T14:18:28.758Z,31.21
2022-08-07T14:21:21.119Z,31.21
2022-08-07T14:24:02.183Z,31.14
2022-08-07T14:26:35.976Z,31.14
2022-08-07T14:30:02.948Z,31.19
2022-08-07T14:31:56.104Z,31.20
2022-08-07T14:34:29.220Z,31.21
2022-08-07T14:37:01.821Z,31.13
2022-08-07T14:40:16.829Z,31.10
2022-08-07T14:42:22.871Z,31.09
2022-08-07T14:44:52.949Z,31.10
2022-08-07T14:47:20.506Z,31.12
2022-08-07T14:49:56.482Z,31.15
2022-08-07T14:55:17.615Z,31.13
2022-08-07T14:57:58.739Z,31.03
2022-08-07T15:00:29.797Z,30.94
2022-08-07T15:03:16.701Z,30.95
2022-08-07T15:05:54.952Z,30.98
2022-08-07T15:08:33.059Z,30.98
2022-08-07T15:11:02.244Z,30.96
2022-08-07T15:13:35.937Z,30.89
2022-08-07T15:16:11.256Z,30.80
2022-08-07T15:18:51.681Z,30.71
2022-08-07T15:25:16.313Z,30.70
2022-08-07T15:27:07.788Z,30.69
2022-08-07T15:30:10.163Z,30.64
2022-08-07T15:32:39.157Z,30.61
2022-08-07T15:35:11.743Z,30.60
2022-08-07T15:38:17.290Z,30.57
2022-08-07T15:40:34.265Z,30.53
2022-08-07T15:43:05.139Z,30.48
2022-08-07T15:45:55.528Z,30.43
2022-08-07T15:48:31.697Z,30.44
2022-08-07T15:51:01.638Z,30.43
2022-08-07T15:53:53.783Z,30.45
2022-08-07T15:56:34.492Z,30.52
2022-08-07T15:59:17.450Z,30.54
2022-08-07T16:02:01.847Z,30.52
2022-08-07T16:04:33.723Z,30.51
2022-08-07T16:08:30.846Z,30.51
2022-08-07T16:09:56.689Z,30.56
2022-08-07T16:12:28.565Z,30.60
2022-08-07T16:15:01.443Z,30.55
2022-08-07T16:18:02.030Z,30.51
2022-08-07T16:20:55.051Z,30.51
2022-08-07T16:23:58.618Z,30.45
2022-08-07T16:26:31.059Z,30.36
2022-08-07T16:30:06.878Z,30.29
2022-08-07T16:31:58.822Z,30.21
2022-08-07T16:34:48.329Z,30.16
2022-08-07T16:38:05.810Z,30.08
2022-08-07T16:44:06.490Z,29.93
2022-08-07T16:47:06.682Z,29.86
2022-08-07T16:50:20.281Z,29.77
2022-08-07T16:52:51.447Z,29.68
2022-08-07T16:55:22.833Z,29.55
2022-08-07T16:58:16.176Z,29.42
2022-08-07T17:01:02.020Z,29.27
2022-08-07T17:03:59.788Z,29.12
2022-08-07T17:06:35.912Z,28.98
2022-08-07T17:10:08.344Z,28.87
2022-08-07T17:12:33.903Z,28.74
2022-08-07T17:15:06.331Z,28.57
2022-08-07T17:17:43.937Z,28.45
2022-08-07T17:20:37.350Z,28.37
2022-08-07T17:23:31.867Z,28.27
2022-08-07T17:26:22.667Z,28.18
2022-08-07T17:28:51.821Z,28.08
2022-08-07T17:31:44.248Z,27.97
2022-08-07T17:34:35.441Z,27.85
2022-08-07T17:38:05.185Z,27.73
2022-08-07T17:40:14.196Z,27.61
2022-08-07T17:43:00.490Z,27.51
2022-08-07T17:45:35.147Z,27.42
2022-08-07T17:48:10.395Z,27.33
2022-08-07T17:50:54.087Z,27.22
2022-08-07T17:54:00.627Z,27.13
2022-08-07T17:56:28.932Z,27.04
2022-08-07T17:59:05.020Z,26.93
2022-08-07T18:01:41.193Z,26.84
2022-08-07T18:04:31.042Z,26.74
2022-08-07T18:07:19.991Z,26.64
2022-08-07T18:10:05.970Z,26.55
2022-08-07T18:12:53.374Z,26.45
2022-08-07T18:15:32.844Z,26.37
2022-08-07T18:18:44.740Z,26.29
2022-08-07T18:21:41.387Z,26.18
2022-08-07T18:24:42.601Z,26.08
2022-08-07T18:27:20.835Z,25.98
2022-08-07T18:30:07.865Z,25.90
2022-08-07T18:33:18.290Z,25.80
2022-08-07T18:35:58.035Z,25.71
2022-08-07T18:38:57.455Z,25.62
2022-08-07T18:41:45.306Z,25.53
2022-08-07T18:44:22.139Z,25.44
2022-08-07T18:47:04.848Z,25.35
2022-08-07T18:50:30.573Z,25.26
2022-08-07T18:52:53.269Z,25.18
2022-08-07T18:55:43.096Z,25.10
2022-08-07T18:58:40.962Z,25.02
2022-08-07T19:02:18.342Z,24.93
2022-08-07T19:04:25.078Z,24.86
2022-08-07T19:07:08.426Z,24.79
2022-08-07T19:09:59.070Z,24.73
2022-08-07T19:12:48.958Z,24.67
2022-08-07T19:16:05.129Z,24.59
2022-08-07T19:18:34.858Z,24.53
2022-08-07T19:21:43.987Z,24.47
2022-08-07T19:24:10.945Z,24.39
2022-08-07T19:27:09.296Z,24.33
2022-08-07T19:31:05.678Z,24.26
2022-08-07T19:32:25.691Z,24.19
2022-08-07T19:34:59.494Z,24.12
2022-08-07T19:37:55.334Z,24.05
2022-08-07T19:40:30.794Z,23.98
2022-08-07T19:43:10.707Z,23.92
2022-08-07T19:46:09.484Z,23.85
2022-08-07T19:48:42.596Z,23.78
2022-08-07T19:51:19.245Z,23.72
2022-08-07T19:54:31.938Z,23.67
2022-08-07T19:57:52.071Z,23.62
2022-08-07T19:59:40.847Z,23.55
2022-08-07T20:02:15.312Z,23.50
2022-08-07T20:04:50.303Z,23.45
2022-08-07T20:07:46.381Z,23.41
2022-08-07T20:10:36.395Z,23.36
2022-08-07T20:13:05.867Z,23.29
2022-08-07T20:15:37.105Z,23.24
2022-08-07T20:18:18.361Z,23.18
2022-08-07T20:21:20.954Z,23.11
2022-08-07T20:23:54.100Z,23.06
2022-08-07T20:26:32.108Z,23.00
2022-08-07T20:29:47.133Z,22.93
2022-08-07T20:31:59.310Z,22.87
2022-08-07T20:34:49.698Z,22.81
2022-08-07T20:37:20.980Z,22.76
2022-08-07T20:40:02.677Z,22.71
2022-08-07T20:42:32.825Z,22.68
2022-08-07T20:45:00.928Z,22.63
2022-08-07T20:47:56.895Z,22.59
2022-08-07T20:50:20.130Z,22.55
2022-08-07T20:52:52.762Z,22.50
2022-08-07T20:55:24.530Z,22.46
2022-08-07T20:58:02.699Z,22.42
2022-08-07T21:00:42.647Z,22.38
2022-08-07T21:03:13.029Z,22.35
2022-08-07T21:06:21.788Z,22.32
2022-08-07T21:09:03.015Z,22.26
2022-08-07T21:11:45.996Z,22.22
2022-08-07T21:14:32.809Z,22.21
2022-08-07T21:18:04.020Z,22.19
2022-08-07T21:20:05.830Z,22.16
2022-08-07T21:22:45.038Z,22.13
2022-08-07T21:25:29.075Z,22.10
2022-08-07T21:28:13.377Z,22.07
2022-08-07T21:30:49.233Z,22.03
2022-08-07T21:33:24.187Z,21.98
2022-08-07T21:36:31.150Z,21.93
2022-08-07T21:39:44.965Z,21.88
2022-08-07T21:42:14.944Z,21.82
2022-08-07T21:45:24.245Z,21.76
2022-08-07T21:48:28.861Z,21.70
2022-08-07T21:51:20.294Z,21.65
2022-08-07T21:53:54.296Z,21.62
2022-08-07T21:56:39.633Z,21.59
2022-08-07T22:00:02.603Z,21.57
2022-08-07T22:02:30.023Z,21.54
2022-08-07T22:05:01.268Z,21.49
2022-08-07T22:07:31.539Z,21.46
2022-08-07T22:10:26.088Z,21.42
2022-08-07T22:13:12.037Z,21.39
2022-08-07T22:16:42.598Z,21.36
2022-08-07T22:18:44.236Z,21.34
2022-08-07T22:21:20.600Z,21.29
2022-08-07T22:23:56.767Z,21.25
2022-08-07T22:26:44.203Z,21.21
2022-08-07T22:29:19.243Z,21.17
2022-08-07T22:32:07.223Z,21.11
2022-08-07T22:34:53.437Z,21.08
2022-08-07T22:38:01.780Z,21.02
2022-08-07T22:40:34.245Z,20.95
2022-08-07T22:43:08.823Z,20.88
2022-08-07T22:46:40.989Z,20.86
2022-08-07T22:49:00.863Z,20.83
2022-08-07T22:51:49.036Z,20.80
2022-08-07T22:54:37.503Z,20.77
2022-08-07T22:57:14.909Z,20.71
2022-08-07T23:00:08.050Z,20.68
2022-08-07T23:02:46.362Z,20.63
2022-08-07T23:06:06.948Z,20.56
2022-08-07T23:08:23.943Z,20.52
2022-08-07T23:10:57.250Z,20.51
2022-08-07T23:13:48.665Z,20.47
2022-08-07T23:16:46.354Z,20.44
2022-08-07T23:19:58.067Z,20.40
2022-08-07T23:22:49.348Z,20.36
2022-08-07T23:25:28.549Z,20.32
2022-08-07T23:28:22.177Z,20.27
2022-08-07T23:31:05.804Z,20.21
2022-08-07T23:34:34.106Z,20.17
2022-08-07T23:37:22.492Z,20.12
2022-08-07T23:39:56.547Z,20.05
2022-08-07T23:42:44.545Z,20.01
2022-08-07T23:45:33.545Z,19.98
2022-08-07T23:48:24.034Z,19.92
2022-08-07T23:53:01.648Z,19.90
2022-08-07T23:54:44.607Z,19.88
2022-08-07T23:57:32.305Z,19.85
